createdAt,value
2023-02-19T00:12:02.919Z,5.07
2023-02-19T00:27:02.719Z,5.02
2023-02-19T00:42:02.554Z,4.89
2023-02-19T00:57:02.404Z,5.02
2023-02-19T01:12:02.255Z,4.98
2023-02-19T01:27:02.095Z,4.91
2023-02-19T01:42:02.237Z,4.77
2023-02-19T01:57:01.813Z,4.89
2023-02-19T02:12:01.632Z,4.80
2023-02-19T02:27:01.468Z,4.70
2023-02-19T02:42:01.312Z,4.50
2023-02-19T02:57:01.153Z,4.34
2023-02-19T03:12:01.001Z,4.14
2023-02-19T03:27:00.830Z,3.96
2023-02-19T03:42:00.679Z,3.60
2023-02-19T03:57:00.551Z,3.30
2023-02-19T04:12:00.373Z,3.06
2023-02-19T04:27:00.200Z,3.00
2023-02-19T04:42:00.049Z,2.94
2023-02-19T04:56:59.861Z,2.77
2023-02-19T05:11:59.711Z,2.58
2023-02-19T05:26:59.560Z,2.61
2023-02-19T05:41:59.382Z,2.44
2023-02-19T05:56:59.253Z,2.51
2023-02-19T06:11:59.076Z,2.53
2023-02-19T06:26:58.914Z,2.55
2023-02-19T06:41:58.791Z,2.67
2023-02-19T06:56:58.602Z,2.71
2023-02-19T07:11:58.468Z,2.81
2023-02-19T07:26:58.305Z,3.00
2023-02-19T07:41:58.139Z,3.13
2023-02-19T07:56:58.001Z,3.33
2023-02-19T08:11:57.831Z,3.58
2023-02-19T08:26:57.657Z,4.01
2023-02-19T08:41:57.530Z,4.15
2023-02-19T08:56:57.322Z,4.79
2023-02-19T09:11:57.214Z,4.61
2023-02-19T09:26:57.537Z,4.40
2023-02-19T09:41:56.846Z,4.96
2023-02-19T09:56:56.689Z,5.10
2023-02-19T10:11:57.481Z,5.81
2023-02-19T10:26:56.493Z,5.45
2023-02-19T10:41:56.234Z,5.66
2023-02-19T10:56:57.100Z,5.66
2023-02-19T11:11:55.945Z,5.73
2023-02-19T11:26:55.741Z,6.51
2023-02-19T11:41:55.693Z,6.47
2023-02-19T11:56:55.503Z,6.28
2023-02-19T12:11:55.358Z,5.89
2023-02-19T12:26:55.156Z,6.32
2023-02-19T12:41:55.078Z,5.75
2023-02-19T12:56:54.920Z,6.01
2023-02-19T13:11:55.794Z,6.97
2023-02-19T13:26:54.591Z,7.41
2023-02-19T13:41:54.462Z,7.19
2023-02-19T13:57:00.451Z,6.29
2023-02-19T14:11:54.145Z,6.21
2023-02-19T14:26:53.883Z,6.16
2023-02-19T14:41:53.736Z,6.21
2023-02-19T14:56:53.581Z,6.16
2023-02-19T15:11:53.431Z,6.16
2023-02-19T15:26:53.263Z,5.77
2023-02-19T15:41:53.126Z,5.64
2023-02-19T15:56:52.966Z,5.20
2023-02-19T16:11:52.856Z,4.96
2023-02-19T16:26:52.647Z,4.75
2023-02-19T16:41:52.500Z,4.58
2023-02-19T16:56:52.420Z,4.37
2023-02-19T17:11:52.374Z,4.03
2023-02-19T17:26:53.108Z,3.82
2023-02-19T17:41:52.225Z,3.57
2023-02-19T17:56:51.693Z,3.54
2023-02-19T18:11:51.596Z,3.68
2023-02-19T18:26:51.385Z,3.75
2023-02-19T18:41:51.219Z,3.61
2023-02-19T18:56:51.077Z,3.27
2023-02-19T19:11:50.991Z,3.31
2023-02-19T19:26:50.749Z,3.06
2023-02-19T19:41:50.686Z,2.84
2023-02-19T19:56:50.469Z,2.69
2023-02-19T20:11:51.287Z,2.84
2023-02-19T20:26:50.162Z,2.61
2023-02-19T20:41:49.974Z,2.73
2023-02-19T20:56:51.214Z,2.77
2023-02-19T21:11:49.642Z,2.81
2023-02-19T21:26:49.927Z,2.84
2023-02-19T21:41:49.360Z,2.55
2023-02-19T21:56:49.153Z,2.37
2023-02-19T22:11:48.997Z,2.41
2023-02-19T22:26:48.820Z,2.44
2023-02-19T22:41:48.682Z,2.02
2023-02-19T22:56:48.560Z,1.93
2023-02-19T23:11:48.360Z,1.93
2023-02-19T23:26:49.150Z,1.99
2023-02-19T23:41:48.072Z,1.76
2023-02-19T23:56:47.910Z,1.71
